sensor_id;sensor_type;location;lat;lon;timestamp;P1;durP1;ratioP1;P2;durP2;ratioP2
53931;SDS011;39844;52.496;13.482;2022-10-16T00:00:33;1.57;;;1.53;;
53931;SDS011;39844;52.496;13.482;2022-10-16T00:03:00;1.80;;;1.70;;
53931;SDS011;39844;52.496;13.482;2022-10-16T00:05:26;1.30;;;1.30;;
53931;SDS011;39844;52.496;13.482;2022-10-16T00:07:52;1.37;;;1.37;;
53931;SDS011;39844;52.496;13.482;2022-10-16T00:10:17;1.50;;;1.40;;
53931;SDS011;39844;52.496;13.482;2022-10-16T00:12:42;1.60;;;1.50;;
53931;SDS011;39844;52.496;13.482;2022-10-16T00:15:08;1.60;;;1.50;;
53931;SDS011;39844;52.496;13.482;2022-10-16T00:17:33;1.10;;;1.10;;
53931;SDS011;39844;52.496;13.482;2022-10-16T00:19:59;1.40;;;1.40;;
53931;SDS011;39844;52.496;13.482;2022-10-16T00:22:24;1.23;;;1.23;;
53931;SDS011;39844;52.496;13.482;2022-10-16T00:24:49;1.20;;;1.20;;
53931;SDS011;39844;52.496;13.482;2022-10-16T00:27:15;1.20;;;1.20;;
53931;SDS011;39844;52.496;13.482;2022-10-16T00:29:41;1.30;;;1.30;;
53931;SDS011;39844;52.496;13.482;2022-10-16T00:32:06;1.53;;;1.43;;
53931;SDS011;39844;52.496;13.482;2022-10-16T00:34:32;1.00;;;1.00;;
53931;SDS011;39844;52.496;13.482;2022-10-16T00:36:57;1.40;;;1.30;;
53931;SDS011;39844;52.496;13.482;2022-10-16T00:39:22;1.40;;;1.30;;
53931;SDS011;39844;52.496;13.482;2022-10-16T00:41:48;1.27;;;1.27;;
53931;SDS011;39844;52.496;13.482;2022-10-16T00:47:31;1.30;;;1.30;;
53931;SDS011;39844;52.496;13.482;2022-10-16T00:50:11;1.10;;;1.10;;
53931;SDS011;39844;52.496;13.482;2022-10-16T00:52:44;1.13;;;1.03;;
53931;SDS011;39844;52.496;13.482;2022-10-16T00:55:12;2.93;;;1.20;;
53931;SDS011;39844;52.496;13.482;2022-10-16T00:57:37;1.10;;;1.10;;
53931;SDS011;39844;52.496;13.482;2022-10-16T01:00:05;1.10;;;1.10;;
53931;SDS011;39844;52.496;13.482;2022-10-16T01:02:32;0.93;;;0.93;;
53931;SDS011;39844;52.496;13.482;2022-10-16T01:04:58;1.10;;;1.10;;
53931;SDS011;39844;52.496;13.482;2022-10-16T01:13:09;1.37;;;1.27;;
53931;SDS011;39844;52.496;13.482;2022-10-16T01:20:44;1.10;;;1.10;;
53931;SDS011;39844;52.496;13.482;2022-10-16T01:23:22;2.00;;;1.00;;
53931;SDS011;39844;52.496;13.482;2022-10-16T01:28:29;1.00;;;1.00;;
53931;SDS011;39844;52.496;13.482;2022-10-16T01:31:01;1.00;;;1.00;;
53931;SDS011;39844;52.496;13.482;2022-10-16T01:33:44;1.20;;;1.20;;
53931;SDS011;39844;52.496;13.482;2022-10-16T01:36:17;1.17;;;1.07;;
53931;SDS011;39844;52.496;13.482;2022-10-16T01:38:49;0.90;;;0.90;;
53931;SDS011;39844;52.496;13.482;2022-10-16T01:41:20;0.73;;;0.73;;
53931;SDS011;39844;52.496;13.482;2022-10-16T01:43:53;1.07;;;1.00;;
53931;SDS011;39844;52.496;13.482;2022-10-16T01:46:23;0.97;;;0.97;;
53931;SDS011;39844;52.496;13.482;2022-10-16T01:48:49;1.00;;;1.00;;
53931;SDS011;39844;52.496;13.482;2022-10-16T01:51:16;1.20;;;1.13;;
53931;SDS011;39844;52.496;13.482;2022-10-16T01:53:47;0.87;;;0.87;;
53931;SDS011;39844;52.496;13.482;2022-10-16T01:56:14;1.30;;;1.20;;
53931;SDS011;39844;52.496;13.482;2022-10-16T01:58:44;1.10;;;1.10;;
53931;SDS011;39844;52.496;13.482;2022-10-16T02:01:12;1.00;;;1.00;;
53931;SDS011;39844;52.496;13.482;2022-10-16T02:03:40;1.00;;;1.00;;
53931;SDS011;39844;52.496;13.482;2022-10-16T02:06:08;0.90;;;0.90;;
53931;SDS011;39844;52.496;13.482;2022-10-16T02:08:33;1.10;;;1.10;;
53931;SDS011;39844;52.496;13.482;2022-10-16T02:11:00;1.17;;;1.17;;
53931;SDS011;39844;52.496;13.482;2022-10-16T02:13:30;1.00;;;1.00;;
53931;SDS011;39844;52.496;13.482;2022-10-16T02:15:56;1.03;;;1.03;;
53931;SDS011;39844;52.496;13.482;2022-10-16T02:18:22;0.97;;;0.97;;
53931;SDS011;39844;52.496;13.482;2022-10-16T02:20:51;0.80;;;0.80;;
53931;SDS011;39844;52.496;13.482;2022-10-16T02:23:25;0.90;;;0.90;;
53931;SDS011;39844;52.496;13.482;2022-10-16T02:25:58;1.03;;;1.03;;
53931;SDS011;39844;52.496;13.482;2022-10-16T02:28:27;0.90;;;0.90;;
53931;SDS011;39844;52.496;13.482;2022-10-16T02:31:03;1.30;;;1.20;;
53931;SDS011;39844;52.496;13.482;2022-10-16T02:33:31;1.07;;;1.07;;
53931;SDS011;39844;52.496;13.482;2022-10-16T02:36:00;1.00;;;1.00;;
53931;SDS011;39844;52.496;13.482;2022-10-16T02:38:25;1.27;;;0.97;;
53931;SDS011;39844;52.496;13.482;2022-10-16T02:40:52;1.10;;;1.10;;
53931;SDS011;39844;52.496;13.482;2022-10-16T02:43:17;0.90;;;0.90;;
53931;SDS011;39844;52.496;13.482;2022-10-16T02:45:43;1.03;;;1.03;;
53931;SDS011;39844;52.496;13.482;2022-10-16T02:48:08;0.97;;;0.97;;
53931;SDS011;39844;52.496;13.482;2022-10-16T02:50:34;1.00;;;1.00;;
53931;SDS011;39844;52.496;13.482;2022-10-16T02:52:59;1.70;;;0.90;;
53931;SDS011;39844;52.496;13.482;2022-10-16T02:55:24;0.80;;;0.80;;
53931;SDS011;39844;52.496;13.482;2022-10-16T02:57:50;1.00;;;1.00;;
53931;SDS011;39844;52.496;13.482;2022-10-16T03:00:16;0.80;;;0.80;;
53931;SDS011;39844;52.496;13.482;2022-10-16T03:02:42;0.90;;;0.90;;
53931;SDS011;39844;52.496;13.482;2022-10-16T03:05:08;1.07;;;1.07;;
53931;SDS011;39844;52.496;13.482;2022-10-16T03:07:34;2.20;;;1.13;;
53931;SDS011;39844;52.496;13.482;2022-10-16T03:09:59;0.60;;;0.60;;
53931;SDS011;39844;52.496;13.482;2022-10-16T03:12:28;0.83;;;0.83;;
53931;SDS011;39844;52.496;13.482;2022-10-16T03:14:54;1.00;;;1.00;;
53931;SDS011;39844;52.496;13.482;2022-10-16T03:17:20;0.83;;;0.83;;
53931;SDS011;39844;52.496;13.482;2022-10-16T03:19:45;0.80;;;0.80;;
53931;SDS011;39844;52.496;13.482;2022-10-16T03:22:11;1.10;;;1.10;;
53931;SDS011;39844;52.496;13.482;2022-10-16T03:24:36;1.00;;;1.00;;
53931;SDS011;39844;52.496;13.482;2022-10-16T03:27:01;0.80;;;0.80;;
53931;SDS011;39844;52.496;13.482;2022-10-16T03:29:27;0.90;;;0.90;;
53931;SDS011;39844;52.496;13.482;2022-10-16T03:31:54;0.87;;;0.87;;
53931;SDS011;39844;52.496;13.482;2022-10-16T03:34:19;0.77;;;0.77;;
53931;SDS011;39844;52.496;13.482;2022-10-16T03:36:45;0.90;;;0.90;;
53931;SDS011;39844;52.496;13.482;2022-10-16T03:39:10;0.90;;;0.90;;
53931;SDS011;39844;52.496;13.482;2022-10-16T03:41:35;1.20;;;1.10;;
53931;SDS011;39844;52.496;13.482;2022-10-16T03:44:00;1.87;;;0.80;;
53931;SDS011;39844;52.496;13.482;2022-10-16T03:46:26;0.80;;;0.80;;
53931;SDS011;39844;52.496;13.482;2022-10-16T03:48:51;1.47;;;1.10;;
53931;SDS011;39844;52.496;13.482;2022-10-16T03:51:16;0.80;;;0.80;;
53931;SDS011;39844;52.496;13.482;2022-10-16T03:53:41;0.90;;;0.90;;
53931;SDS011;39844;52.496;13.482;2022-10-16T03:56:07;0.83;;;0.83;;
53931;SDS011;39844;52.496;13.482;2022-10-16T03:58:32;1.23;;;1.10;;
53931;SDS011;39844;52.496;13.482;2022-10-16T04:00:57;1.10;;;1.10;;
53931;SDS011;39844;52.496;13.482;2022-10-16T04:03:23;1.00;;;1.00;;
53931;SDS011;39844;52.496;13.482;2022-10-16T04:05:48;2.10;;;0.83;;
53931;SDS011;39844;52.496;13.482;2022-10-16T04:08:14;0.90;;;0.90;;
53931;SDS011;39844;52.496;13.482;2022-10-16T04:10:41;0.90;;;0.90;;
53931;SDS011;39844;52.496;13.482;2022-10-16T04:13:07;1.00;;;1.00;;
53931;SDS011;39844;52.496;13.482;2022-10-16T04:15:33;1.20;;;1.10;;
53931;SDS011;39844;52.496;13.482;2022-10-16T04:17:58;0.90;;;0.90;;
53931;SDS011;39844;52.496;13.482;2022-10-16T04:20:23;0.97;;;0.90;;
53931;SDS011;39844;52.496;13.482;2022-10-16T04:22:49;0.87;;;0.87;;
53931;SDS011;39844;52.496;13.482;2022-10-16T04:25:14;0.90;;;0.90;;
53931;SDS011;39844;52.496;13.482;2022-10-16T04:27:39;0.93;;;0.93;;
53931;SDS011;39844;52.496;13.482;2022-10-16T04:30:05;1.00;;;1.00;;
53931;SDS011;39844;52.496;13.482;2022-10-16T04:32:30;0.80;;;0.80;;
53931;SDS011;39844;52.496;13.482;2022-10-16T04:34:56;1.00;;;1.00;;
53931;SDS011;39844;52.496;13.482;2022-10-16T04:37:24;0.73;;;0.73;;
53931;SDS011;39844;52.496;13.482;2022-10-16T04:39:51;0.90;;;0.90;;
53931;SDS011;39844;52.496;13.482;2022-10-16T04:42:16;1.03;;;1.00;;
53931;SDS011;39844;52.496;13.482;2022-10-16T04:44:42;0.97;;;0.97;;
53931;SDS011;39844;52.496;13.482;2022-10-16T04:47:07;0.83;;;0.83;;
53931;SDS011;39844;52.496;13.482;2022-10-16T04:49:33;0.93;;;0.93;;
53931;SDS011;39844;52.496;13.482;2022-10-16T04:51:58;0.90;;;0.90;;
53931;SDS011;39844;52.496;13.482;2022-10-16T04:54:23;0.87;;;0.87;;
53931;SDS011;39844;52.496;13.482;2022-10-16T04:56:48;0.80;;;0.80;;
53931;SDS011;39844;52.496;13.482;2022-10-16T04:59:16;1.20;;;1.10;;
53931;SDS011;39844;52.496;13.482;2022-10-16T05:01:42;1.80;;;0.90;;
53931;SDS011;39844;52.496;13.482;2022-10-16T05:04:07;0.90;;;0.90;;
53931;SDS011;39844;52.496;13.482;2022-10-16T05:06:33;0.77;;;0.77;;
53931;SDS011;39844;52.496;13.482;2022-10-16T05:08:58;0.70;;;0.70;;
53931;SDS011;39844;52.496;13.482;2022-10-16T05:11:23;0.70;;;0.70;;
53931;SDS011;39844;52.496;13.482;2022-10-16T05:13:49;1.07;;;1.07;;
53931;SDS011;39844;52.496;13.482;2022-10-16T05:16:14;0.80;;;0.80;;
53931;SDS011;39844;52.496;13.482;2022-10-16T05:18:39;1.00;;;1.00;;
53931;SDS011;39844;52.496;13.482;2022-10-16T05:21:05;0.90;;;0.90;;
53931;SDS011;39844;52.496;13.482;2022-10-16T05:23:30;0.80;;;0.80;;
53931;SDS011;39844;52.496;13.482;2022-10-16T05:25:56;0.90;;;0.90;;
53931;SDS011;39844;52.496;13.482;2022-10-16T05:28:26;1.10;;;0.97;;
53931;SDS011;39844;52.496;13.482;2022-10-16T05:30:53;1.13;;;1.07;;
53931;SDS011;39844;52.496;13.482;2022-10-16T05:33:22;0.90;;;0.90;;
53931;SDS011;39844;52.496;13.482;2022-10-16T05:35:49;0.93;;;0.93;;
53931;SDS011;39844;52.496;13.482;2022-10-16T05:38:15;0.83;;;0.83;;
53931;SDS011;39844;52.496;13.482;2022-10-16T05:40:41;0.93;;;0.93;;
53931;SDS011;39844;52.496;13.482;2022-10-16T05:43:07;1.00;;;1.00;;
53931;SDS011;39844;52.496;13.482;2022-10-16T05:45:32;1.17;;;1.17;;
53931;SDS011;39844;52.496;13.482;2022-10-16T05:47:59;1.00;;;1.00;;
53931;SDS011;39844;52.496;13.482;2022-10-16T05:50:24;0.90;;;0.90;;
53931;SDS011;39844;52.496;13.482;2022-10-16T05:52:50;0.90;;;0.90;;
53931;SDS011;39844;52.496;13.482;2022-10-16T05:55:15;1.00;;;1.00;;
53931;SDS011;39844;52.496;13.482;2022-10-16T05:57:40;0.90;;;0.90;;
53931;SDS011;39844;52.496;13.482;2022-10-16T06:00:06;1.00;;;1.00;;
53931;SDS011;39844;52.496;13.482;2022-10-16T06:02:31;0.80;;;0.80;;
53931;SDS011;39844;52.496;13.482;2022-10-16T06:04:57;1.00;;;1.00;;
53931;SDS011;39844;52.496;13.482;2022-10-16T06:07:22;0.90;;;0.90;;
53931;SDS011;39844;52.496;13.482;2022-10-16T06:09:48;0.80;;;0.80;;
53931;SDS011;39844;52.496;13.482;2022-10-16T06:12:14;0.90;;;0.90;;
53931;SDS011;39844;52.496;13.482;2022-10-16T06:14:40;0.77;;;0.77;;
53931;SDS011;39844;52.496;13.482;2022-10-16T06:17:05;0.97;;;0.93;;
53931;SDS011;39844;52.496;13.482;2022-10-16T06:19:31;1.13;;;1.10;;
53931;SDS011;39844;52.496;13.482;2022-10-16T06:21:56;1.10;;;1.10;;
53931;SDS011;39844;52.496;13.482;2022-10-16T06:24:23;1.07;;;1.07;;
53931;SDS011;39844;52.496;13.482;2022-10-16T06:26:48;1.00;;;1.00;;
53931;SDS011;39844;52.496;13.482;2022-10-16T06:29:13;1.17;;;1.17;;
53931;SDS011;39844;52.496;13.482;2022-10-16T06:31:38;0.90;;;0.90;;
53931;SDS011;39844;52.496;13.482;2022-10-16T06:34:04;0.93;;;0.93;;
53931;SDS011;39844;52.496;13.482;2022-10-16T06:36:34;1.37;;;1.33;;
53931;SDS011;39844;52.496;13.482;2022-10-16T06:38:59;1.00;;;1.00;;
53931;SDS011;39844;52.496;13.482;2022-10-16T06:41:24;0.80;;;0.80;;
53931;SDS011;39844;52.496;13.482;2022-10-16T06:43:49;0.90;;;0.90;;
53931;SDS011;39844;52.496;13.482;2022-10-16T06:46:16;1.27;;;1.17;;
53931;SDS011;39844;52.496;13.482;2022-10-16T06:48:44;1.00;;;1.00;;
53931;SDS011;39844;52.496;13.482;2022-10-16T06:53:37;1.03;;;1.03;;
53931;SDS011;39844;52.496;13.482;2022-10-16T06:58:32;1.17;;;1.17;;
53931;SDS011;39844;52.496;13.482;2022-10-16T07:00:58;0.90;;;0.90;;
53931;SDS011;39844;52.496;13.482;2022-10-16T07:03:23;1.10;;;1.10;;
53931;SDS011;39844;52.496;13.482;2022-10-16T07:05:48;0.70;;;0.70;;
53931;SDS011;39844;52.496;13.482;2022-10-16T07:08:14;0.90;;;0.90;;
53931;SDS011;39844;52.496;13.482;2022-10-16T07:10:39;1.00;;;1.00;;
53931;SDS011;39844;52.496;13.482;2022-10-16T07:13:04;1.07;;;0.93;;
53931;SDS011;39844;52.496;13.482;2022-10-16T07:15:30;1.00;;;1.00;;
53931;SDS011;39844;52.496;13.482;2022-10-16T07:17:55;1.00;;;1.00;;
53931;SDS011;39844;52.496;13.482;2022-10-16T07:20:20;0.80;;;0.80;;
53931;SDS011;39844;52.496;13.482;2022-10-16T07:22:46;1.00;;;1.00;;
53931;SDS011;39844;52.496;13.482;2022-10-16T07:25:11;0.90;;;0.90;;
53931;SDS011;39844;52.496;13.482;2022-10-16T07:27:37;1.10;;;1.00;;
53931;SDS011;39844;52.496;13.482;2022-10-16T07:30:03;1.27;;;0.93;;
53931;SDS011;39844;52.496;13.482;2022-10-16T07:32:29;1.17;;;0.97;;
53931;SDS011;39844;52.496;13.482;2022-10-16T07:34:55;1.00;;;1.00;;
53931;SDS011;39844;52.496;13.482;2022-10-16T07:37:20;0.90;;;0.90;;
53931;SDS011;39844;52.496;13.482;2022-10-16T07:39:46;1.17;;;0.97;;
53931;SDS011;39844;52.496;13.482;2022-10-16T07:42:11;0.90;;;0.90;;
53931;SDS011;39844;52.496;13.482;2022-10-16T07:44:37;1.00;;;1.00;;
53931;SDS011;39844;52.496;13.482;2022-10-16T07:47:02;0.70;;;0.70;;
53931;SDS011;39844;52.496;13.482;2022-10-16T07:49:27;0.90;;;0.90;;
53931;SDS011;39844;52.496;13.482;2022-10-16T07:51:53;0.80;;;0.80;;
53931;SDS011;39844;52.496;13.482;2022-10-16T07:54:18;1.00;;;1.00;;
53931;SDS011;39844;52.496;13.482;2022-10-16T07:56:43;0.73;;;0.73;;
53931;SDS011;39844;52.496;13.482;2022-10-16T07:59:08;0.70;;;0.70;;
53931;SDS011;39844;52.496;13.482;2022-10-16T08:01:34;2.83;;;0.90;;
53931;SDS011;39844;52.496;13.482;2022-10-16T08:03:59;2.93;;;1.07;;
53931;SDS011;39844;52.496;13.482;2022-10-16T08:06:24;0.70;;;0.70;;
53931;SDS011;39844;52.496;13.482;2022-10-16T08:08:50;1.10;;;1.00;;
53931;SDS011;39844;52.496;13.482;2022-10-16T08:11:15;0.80;;;0.80;;
53931;SDS011;39844;52.496;13.482;2022-10-16T08:13:41;0.83;;;0.83;;
53931;SDS011;39844;52.496;13.482;2022-10-16T08:16:07;0.70;;;0.70;;
53931;SDS011;39844;52.496;13.482;2022-10-16T08:18:34;0.90;;;0.90;;
53931;SDS011;39844;52.496;13.482;2022-10-16T08:21:00;1.30;;;0.90;;
53931;SDS011;39844;52.496;13.482;2022-10-16T08:23:26;0.83;;;0.83;;
53931;SDS011;39844;52.496;13.482;2022-10-16T08:25:52;3.20;;;0.90;;
53931;SDS011;39844;52.496;13.482;2022-10-16T08:28:19;0.97;;;0.97;;
53931;SDS011;39844;52.496;13.482;2022-10-16T08:30:44;0.80;;;0.80;;
53931;SDS011;39844;52.496;13.482;2022-10-16T08:33:10;2.00;;;0.97;;
53931;SDS011;39844;52.496;13.482;2022-10-16T08:35:35;0.70;;;0.70;;
53931;SDS011;39844;52.496;13.482;2022-10-16T08:38:04;0.80;;;0.80;;
53931;SDS011;39844;52.496;13.482;2022-10-16T08:40:31;0.70;;;0.70;;
53931;SDS011;39844;52.496;13.482;2022-10-16T08:50:52;0.80;;;0.80;;
53931;SDS011;39844;52.496;13.482;2022-10-16T08:53:26;0.90;;;0.90;;
53931;SDS011;39844;52.496;13.482;2022-10-16T08:55:56;3.10;;;0.90;;
53931;SDS011;39844;52.496;13.482;2022-10-16T08:58:26;2.83;;;0.90;;
53931;SDS011;39844;52.496;13.482;2022-10-16T09:00:53;0.87;;;0.87;;
53931;SDS011;39844;52.496;13.482;2022-10-16T09:06:12;0.80;;;0.80;;
53931;SDS011;39844;52.496;13.482;2022-10-16T09:17:04;0.80;;;0.80;;
53931;SDS011;39844;52.496;13.482;2022-10-16T09:20:42;1.80;;;1.10;;
53931;SDS011;39844;52.496;13.482;2022-10-16T09:22:44;0.90;;;0.90;;
53931;SDS011;39844;52.496;13.482;2022-10-16T09:25:17;0.80;;;0.80;;
53931;SDS011;39844;52.496;13.482;2022-10-16T09:27:48;1.47;;;0.93;;
53931;SDS011;39844;52.496;13.482;2022-10-16T09:30:18;0.70;;;0.70;;
53931;SDS011;39844;52.496;13.482;2022-10-16T09:32:45;1.80;;;1.23;;
53931;SDS011;39844;52.496;13.482;2022-10-16T09:35:19;4.10;;;0.87;;
53931;SDS011;39844;52.496;13.482;2022-10-16T09:37:47;2.23;;;0.83;;
53931;SDS011;39844;52.496;13.482;2022-10-16T09:46:05;0.90;;;0.90;;
53931;SDS011;39844;52.496;13.482;2022-10-16T09:48:51;0.73;;;0.73;;
53931;SDS011;39844;52.496;13.482;2022-10-16T09:51:30;0.90;;;0.90;;
53931;SDS011;39844;52.496;13.482;2022-10-16T09:56:35;0.80;;;0.80;;
53931;SDS011;39844;52.496;13.482;2022-10-16T09:59:18;0.80;;;0.80;;
53931;SDS011;39844;52.496;13.482;2022-10-16T10:01:45;1.00;;;1.00;;
53931;SDS011;39844;52.496;13.482;2022-10-16T10:04:13;1.10;;;1.00;;
53931;SDS011;39844;52.496;13.482;2022-10-16T10:09:17;0.83;;;0.83;;
53931;SDS011;39844;52.496;13.482;2022-10-16T10:11:55;1.07;;;1.07;;
53931;SDS011;39844;52.496;13.482;2022-10-16T10:14:22;2.43;;;0.70;;
53931;SDS011;39844;52.496;13.482;2022-10-16T10:16:48;2.00;;;0.83;;
53931;SDS011;39844;52.496;13.482;2022-10-16T10:19:18;0.90;;;0.90;;
53931;SDS011;39844;52.496;13.482;2022-10-16T10:21:46;1.10;;;1.00;;
53931;SDS011;39844;52.496;13.482;2022-10-16T10:24:12;0.70;;;0.70;;
53931;SDS011;39844;52.496;13.482;2022-10-16T10:26:41;0.80;;;0.80;;
53931;SDS011;39844;52.496;13.482;2022-10-16T10:32:03;0.90;;;0.90;;
53931;SDS011;39844;52.496;13.482;2022-10-16T10:40:07;0.93;;;0.90;;
53931;SDS011;39844;52.496;13.482;2022-10-16T10:42:48;1.30;;;0.70;;
53931;SDS011;39844;52.496;13.482;2022-10-16T10:45:26;0.80;;;0.80;;
53931;SDS011;39844;52.496;13.482;2022-10-16T10:48:02;3.47;;;0.83;;
53931;SDS011;39844;52.496;13.482;2022-10-16T10:59:25;1.50;;;1.03;;
53931;SDS011;39844;52.496;13.482;2022-10-16T11:02:29;1.17;;;1.07;;
53931;SDS011;39844;52.496;13.482;2022-10-16T11:05:42;0.80;;;0.80;;
53931;SDS011;39844;52.496;13.482;2022-10-16T11:07:44;0.60;;;0.60;;
53931;SDS011;39844;52.496;13.482;2022-10-16T11:10:34;0.70;;;0.70;;
53931;SDS011;39844;52.496;13.482;2022-10-16T11:13:32;0.70;;;0.70;;
53931;SDS011;39844;52.496;13.482;2022-10-16T11:16:17;0.83;;;0.83;;
53931;SDS011;39844;52.496;13.482;2022-10-16T11:18:52;1.67;;;0.87;;
53931;SDS011;39844;52.496;13.482;2022-10-16T11:21:23;1.33;;;0.80;;
53931;SDS011;39844;52.496;13.482;2022-10-16T11:24:14;0.77;;;0.77;;
53931;SDS011;39844;52.496;13.482;2022-10-16T11:26:53;1.97;;;0.90;;
53931;SDS011;39844;52.496;13.482;2022-10-16T11:29:22;0.70;;;0.70;;
53931;SDS011;39844;52.496;13.482;2022-10-16T11:31:55;2.37;;;0.90;;
53931;SDS011;39844;52.496;13.482;2022-10-16T11:34:44;0.63;;;0.63;;
53931;SDS011;39844;52.496;13.482;2022-10-16T11:37:20;0.80;;;0.80;;
53931;SDS011;39844;52.496;13.482;2022-10-16T11:39:50;0.60;;;0.60;;
53931;SDS011;39844;52.496;13.482;2022-10-16T11:45:07;0.63;;;0.63;;
53931;SDS011;39844;52.496;13.482;2022-10-16T11:48:08;0.83;;;0.70;;
53931;SDS011;39844;52.496;13.482;2022-10-16T11:50:50;0.73;;;0.73;;
53931;SDS011;39844;52.496;13.482;2022-10-16T11:53:24;0.53;;;0.53;;
53931;SDS011;39844;52.496;13.482;2022-10-16T11:55:53;0.50;;;0.50;;
53931;SDS011;39844;52.496;13.482;2022-10-16T11:58:32;1.80;;;1.00;;
53931;SDS011;39844;52.496;13.482;2022-10-16T12:03:46;0.53;;;0.53;;
53931;SDS011;39844;52.496;13.482;2022-10-16T12:09:04;0.57;;;0.57;;
53931;SDS011;39844;52.496;13.482;2022-10-16T12:11:39;1.37;;;0.60;;
53931;SDS011;39844;52.496;13.482;2022-10-16T12:16:56;1.80;;;0.77;;
53931;SDS011;39844;52.496;13.482;2022-10-16T12:19:30;0.60;;;0.60;;
53931;SDS011;39844;52.496;13.482;2022-10-16T12:21:58;2.23;;;0.50;;
53931;SDS011;39844;52.496;13.482;2022-10-16T12:24:28;4.23;;;0.70;;
53931;SDS011;39844;52.496;13.482;2022-10-16T12:26:57;0.77;;;0.50;;
53931;SDS011;39844;52.496;13.482;2022-10-16T12:29:38;0.68;;;0.68;;
53931;SDS011;39844;52.496;13.482;2022-10-16T12:34:50;1.42;;;0.60;;
53931;SDS011;39844;52.496;13.482;2022-10-16T12:39:53;3.60;;;0.80;;
53931;SDS011;39844;52.496;13.482;2022-10-16T12:42:21;0.60;;;0.60;;
53931;SDS011;39844;52.496;13.482;2022-10-16T12:44:48;0.70;;;0.70;;
53931;SDS011;39844;52.496;13.482;2022-10-16T12:47:57;0.57;;;0.57;;
53931;SDS011;39844;52.496;13.482;2022-10-16T12:50:29;1.08;;;0.60;;
53931;SDS011;39844;52.496;13.482;2022-10-16T12:52:58;0.70;;;0.70;;
53931;SDS011;39844;52.496;13.482;2022-10-16T12:55:24;0.60;;;0.60;;
53931;SDS011;39844;52.496;13.482;2022-10-16T12:58:08;2.50;;;0.57;;
53931;SDS011;39844;52.496;13.482;2022-10-16T13:00:45;1.00;;;0.65;;
53931;SDS011;39844;52.496;13.482;2022-10-16T13:09:04;1.10;;;0.70;;
53931;SDS011;39844;52.496;13.482;2022-10-16T13:15:15;0.40;;;0.40;;
53931;SDS011;39844;52.496;13.482;2022-10-16T13:25:55;0.45;;;0.45;;
53931;SDS011;39844;52.496;13.482;2022-10-16T13:28:27;0.55;;;0.55;;
53931;SDS011;39844;52.496;13.482;2022-10-16T13:30:54;0.50;;;0.50;;
53931;SDS011;39844;52.496;13.482;2022-10-16T13:35:58;0.70;;;0.70;;
53931;SDS011;39844;52.496;13.482;2022-10-16T13:38:28;0.65;;;0.65;;
53931;SDS011;39844;52.496;13.482;2022-10-16T13:40:57;0.47;;;0.47;;
53931;SDS011;39844;52.496;13.482;2022-10-16T13:43:34;0.68;;;0.68;;
53931;SDS011;39844;52.496;13.482;2022-10-16T13:48:39;0.73;;;0.73;;
53931;SDS011;39844;52.496;13.482;2022-10-16T13:53:41;0.60;;;0.60;;
53931;SDS011;39844;52.496;13.482;2022-10-16T13:56:11;0.70;;;0.70;;
53931;SDS011;39844;52.496;13.482;2022-10-16T13:58:38;1.20;;;0.75;;
53931;SDS011;39844;52.496;13.482;2022-10-16T14:01:05;0.40;;;0.40;;
53931;SDS011;39844;52.496;13.482;2022-10-16T14:03:40;0.80;;;0.80;;
53931;SDS011;39844;52.496;13.482;2022-10-16T14:06:10;0.60;;;0.60;;
53931;SDS011;39844;52.496;13.482;2022-10-16T14:08:40;0.70;;;0.70;;
53931;SDS011;39844;52.496;13.482;2022-10-16T14:11:09;0.68;;;0.68;;
53931;SDS011;39844;52.496;13.482;2022-10-16T14:13:39;0.35;;;0.35;;
53931;SDS011;39844;52.496;13.482;2022-10-16T14:16:09;0.55;;;0.55;;
53931;SDS011;39844;52.496;13.482;2022-10-16T14:18:41;0.57;;;0.57;;
53931;SDS011;39844;52.496;13.482;2022-10-16T14:21:12;0.50;;;0.50;;
53931;SDS011;39844;52.496;13.482;2022-10-16T14:23:41;0.57;;;0.57;;
53931;SDS011;39844;52.496;13.482;2022-10-16T14:28:38;0.98;;;0.90;;
53931;SDS011;39844;52.496;13.482;2022-10-16T14:33:57;0.80;;;0.80;;
53931;SDS011;39844;52.496;13.482;2022-10-16T14:36:22;2.97;;;0.70;;
53931;SDS011;39844;52.496;13.482;2022-10-16T14:41:21;0.80;;;0.80;;
53931;SDS011;39844;52.496;13.482;2022-10-16T14:43:49;0.40;;;0.40;;
53931;SDS011;39844;52.496;13.482;2022-10-16T14:46:19;0.73;;;0.73;;
53931;SDS011;39844;52.496;13.482;2022-10-16T14:48:59;0.93;;;0.93;;
53931;SDS011;39844;52.496;13.482;2022-10-16T14:51:31;0.68;;;0.68;;
53931;SDS011;39844;52.496;13.482;2022-10-16T14:53:56;0.80;;;0.80;;
53931;SDS011;39844;52.496;13.482;2022-10-16T14:56:25;0.80;;;0.80;;
53931;SDS011;39844;52.496;13.482;2022-10-16T14:58:56;3.10;;;0.75;;
53931;SDS011;39844;52.496;13.482;2022-10-16T15:01:22;0.65;;;0.65;;
53931;SDS011;39844;52.496;13.482;2022-10-16T15:03:47;1.10;;;1.00;;
53931;SDS011;39844;52.496;13.482;2022-10-16T15:06:16;0.80;;;0.80;;
53931;SDS011;39844;52.496;13.482;2022-10-16T15:08:41;0.88;;;0.70;;
53931;SDS011;39844;52.496;13.482;2022-10-16T15:11:14;1.00;;;0.98;;
53931;SDS011;39844;52.496;13.482;2022-10-16T15:13:41;1.00;;;0.90;;
53931;SDS011;39844;52.496;13.482;2022-10-16T15:16:09;0.90;;;0.90;;
53931;SDS011;39844;52.496;13.482;2022-10-16T15:18:41;0.50;;;0.50;;
53931;SDS011;39844;52.496;13.482;2022-10-16T15:21:07;1.65;;;1.10;;
53931;SDS011;39844;52.496;13.482;2022-10-16T15:23:34;1.38;;;1.27;;
53931;SDS011;39844;52.496;13.482;2022-10-16T15:25:59;0.98;;;0.90;;
53931;SDS011;39844;52.496;13.482;2022-10-16T15:28:25;0.70;;;0.70;;
53931;SDS011;39844;52.496;13.482;2022-10-16T15:30:51;0.82;;;0.82;;
53931;SDS011;39844;52.496;13.482;2022-10-16T15:33:22;0.77;;;0.77;;
53931;SDS011;39844;52.496;13.482;2022-10-16T15:35:52;0.90;;;0.90;;
53931;SDS011;39844;52.496;13.482;2022-10-16T15:38:18;0.73;;;0.73;;
53931;SDS011;39844;52.496;13.482;2022-10-16T15:40:45;1.30;;;0.82;;
53931;SDS011;39844;52.496;13.482;2022-10-16T15:43:11;1.15;;;1.10;;
53931;SDS011;39844;52.496;13.482;2022-10-16T15:45:37;1.30;;;0.90;;
53931;SDS011;39844;52.496;13.482;2022-10-16T15:48:02;0.98;;;0.98;;
53931;SDS011;39844;52.496;13.482;2022-10-16T15:50:30;3.83;;;0.90;;
53931;SDS011;39844;52.496;13.482;2022-10-16T15:52:56;0.77;;;0.77;;
53931;SDS011;39844;52.496;13.482;2022-10-16T15:55:21;1.00;;;1.00;;
53931;SDS011;39844;52.496;13.482;2022-10-16T15:57:47;0.98;;;0.98;;
53931;SDS011;39844;52.496;13.482;2022-10-16T16:00:13;1.60;;;1.17;;
53931;SDS011;39844;52.496;13.482;2022-10-16T16:02:43;1.17;;;1.10;;
53931;SDS011;39844;52.496;13.482;2022-10-16T16:05:14;1.38;;;1.27;;
53931;SDS011;39844;52.496;13.482;2022-10-16T16:07:39;2.10;;;1.10;;
53931;SDS011;39844;52.496;13.482;2022-10-16T16:10:06;1.40;;;1.15;;
53931;SDS011;39844;52.496;13.482;2022-10-16T16:12:33;1.60;;;1.50;;
53931;SDS011;39844;52.496;13.482;2022-10-16T16:14:59;2.87;;;1.50;;
53931;SDS011;39844;52.496;13.482;2022-10-16T16:17:24;1.33;;;1.20;;
53931;SDS011;39844;52.496;13.482;2022-10-16T16:19:50;3.30;;;1.17;;
53931;SDS011;39844;52.496;13.482;2022-10-16T16:22:15;3.43;;;2.57;;
53931;SDS011;39844;52.496;13.482;2022-10-16T16:24:40;2.70;;;2.00;;
53931;SDS011;39844;52.496;13.482;2022-10-16T16:27:06;3.77;;;2.10;;
53931;SDS011;39844;52.496;13.482;2022-10-16T16:29:31;4.80;;;2.33;;
53931;SDS011;39844;52.496;13.482;2022-10-16T16:31:57;2.80;;;1.70;;
53931;SDS011;39844;52.496;13.482;2022-10-16T16:34:24;3.10;;;1.57;;
53931;SDS011;39844;52.496;13.482;2022-10-16T16:36:50;3.07;;;2.17;;
53931;SDS011;39844;52.496;13.482;2022-10-16T16:39:16;1.40;;;1.30;;